Time;durP1;ratioP1;P1;durP2;ratioP2;P2;SDS_P1;SDS_P2;PMS_P1;PMS_P2;Temp;Humidity;BMP_temperature;BMP_pressure;BME280_temperature;BME280_humidity;BME280_pressure;Samples;Min_cycle;Max_cycle;Signal;HPM_P1;HPM_P2
2021/09/10 00:05:31;;;;;;;12.63;8.87;;;20.10;1.00;;;;;;5034299;28;20413;-79
2021/09/10 00:08:01;;;;;;;12.40;8.50;;;20.10;1.00;;;;;;5031655;28;20415;-78
2021/09/10 00:10:37;;;;;;;16.73;8.97;;;20.10;1.00;;;;;;5015177;28;20397;-78
2021/09/10 00:16:24;;;;;;;10.30;8.60;;;20.00;1.00;;;;;;5034669;28;20497;-78
2021/09/10 00:22:12;;;;;;;14.37;9.30;;;20.00;1.00;;;;;;5025987;28;20397;-78
2021/09/10 00:28:00;;;;;;;14.77;9.20;;;19.90;1.00;;;;;;5014963;28;20194;-78
2021/09/10 00:31:06;;;;;;;13.33;8.93;;;19.90;1.00;;;;;;5019228;28;20529;-78
2021/09/10 00:37:31;;;;;;;15.27;9.63;;;19.90;1.00;;;;;;5014722;28;20850;-77
2021/09/10 00:40:01;;;;;;;19.20;9.83;;;19.90;1.00;;;;;;5016952;28;20397;-78
2021/09/10 00:42:48;;;;;;;16.43;9.33;;;19.90;1.00;;;;;;5034595;28;20929;-77
2021/09/10 00:48:37;;;;;;;14.70;9.13;;;19.90;1.00;;;;;;5034461;28;20452;-77
2021/09/10 00:51:13;;;;;;;16.90;10.07;;;19.90;1.00;;;;;;5034030;28;20480;-77
2021/09/10 00:57:00;;;;;;;13.37;8.83;;;19.80;1.00;;;;;;5034192;28;20529;-79
2021/09/10 01:00:12;;;;;;;13.57;9.27;;;19.80;1.00;;;;;;5029370;28;20812;-79
2021/09/10 01:02:49;;;;;;;14.73;9.20;;;19.80;1.00;;;;;;5020684;28;20217;-79
2021/09/10 01:08:55;;;;;;;18.67;9.53;;;19.80;1.00;;;;;;5034152;28;20418;-79
2021/09/10 01:15:19;;;;;;;20.77;9.57;;;19.70;1.00;;;;;;5021393;28;20466;-79
2021/09/10 01:18:01;;;;;;;12.80;9.40;;;19.60;1.00;;;;;;5014132;28;20460;-79
2021/09/10 01:23:48;;;;;;;16.37;9.77;;;19.60;1.00;;;;;;5017830;28;20919;-78
2021/09/10 01:29:36;;;;;;;14.03;9.53;;;19.60;1.00;;;;;;5032975;28;20596;-78
2021/09/10 01:32:02;;;;;;;16.30;9.93;;;19.60;1.00;;;;;;5033454;28;20422;-78
2021/09/10 01:35:01;;;;;;;13.50;9.30;;;19.60;1.00;;;;;;5024655;28;20199;-77
2021/09/10 01:37:43;;;;;;;19.03;10.77;;;19.60;1.00;;;;;;5014068;28;20949;-77
2021/09/10 01:40:31;;;;;;;12.67;9.57;;;19.60;1.00;;;;;;5014210;28;20910;-79
2021/09/10 01:42:57;;;;;;;13.03;9.00;;;19.60;1.00;;;;;;5032846;28;20423;-79
2021/09/10 01:48:44;;;;;;;15.70;9.43;;;19.60;1.00;;;;;;5013853;28;20415;-79
2021/09/10 01:51:13;;;;;;;15.70;9.80;;;19.60;1.00;;;;;;5020899;28;20498;-79
2021/09/10 02:00:31;;;;;;;17.03;10.80;;;19.60;1.00;;;;;;5019259;28;20421;-79
2021/09/10 02:03:24;;;;;;;25.27;10.87;;;19.60;1.00;;;;;;5032832;28;20417;-79
2021/09/10 02:05:55;;;;;;;17.60;10.10;;;19.60;1.00;;;;;;5014129;28;20811;-79
2021/09/10 02:08:20;;;;;;;14.33;10.27;;;19.60;1.00;;;;;;5023187;28;20392;-79
2021/09/10 02:10:46;;;;;;;18.30;10.63;;;19.60;1.00;;;;;;5037024;28;20471;-79
2021/09/10 02:13:15;;;;;;;14.37;10.43;;;19.50;1.00;;;;;;5025152;28;20255;-79
2021/09/10 02:15:41;;;;;;;20.40;10.90;;;19.50;1.00;;;;;;5017334;28;20176;-79
2021/09/10 02:18:07;;;;;;;17.90;10.33;;;19.50;1.00;;;;;;5017258;28;20444;-79
2021/09/10 02:20:43;;;;;;;15.67;10.30;;;19.50;1.00;;;;;;5031432;28;20179;-79
2021/09/10 02:23:13;;;;;;;19.23;10.47;;;19.50;1.00;;;;;;5035803;28;20175;-79
2021/09/10 02:25:39;;;;;;;13.70;10.00;;;19.40;1.00;;;;;;5023630;28;20505;-78
2021/09/10 02:28:04;;;;;;;13.80;9.57;;;19.40;1.00;;;;;;5035985;28;20489;-78
2021/09/10 02:33:51;;;;;;;14.87;10.33;;;19.40;1.00;;;;;;5036121;28;20230;-78
2021/09/10 02:39:39;;;;;;;20.60;10.03;;;19.40;1.00;;;;;;5017782;28;20577;-79
2021/09/10 02:45:37;;;;;;;13.60;10.53;;;19.40;1.00;;;;;;5035772;28;20661;-79
2021/09/10 02:48:19;;;;;;;17.07;10.67;;;19.50;1.00;;;;;;5036856;28;20390;-79
2021/09/10 02:54:07;;;;;;;13.73;10.10;;;19.50;1.00;;;;;;5036316;28;20946;-78
2021/09/10 02:59:55;;;;;;;14.87;9.90;;;19.60;1.00;;;;;;5033367;28;20489;-77
2021/09/10 03:02:25;;;;;;;13.73;9.10;;;19.60;1.00;;;;;;5027428;28;20431;-78
2021/09/10 03:08:12;;;;;;;19.33;9.93;;;19.60;1.00;;;;;;5032051;28;20418;-78
2021/09/10 03:10:49;;;;;;;12.53;9.47;;;19.70;1.00;;;;;;5016689;28;20400;-77
2021/09/10 03:13:25;;;;;;;20.43;9.23;;;19.70;1.00;;;;;;5034944;28;20198;-78
2021/09/10 03:15:55;;;;;;;16.63;10.77;;;19.70;1.00;;;;;;5024626;28;20459;-78
2021/09/10 03:21:55;;;;;;;22.23;9.87;;;19.70;1.00;;;;;;5016707;28;20904;-78
2021/09/10 03:24:25;;;;;;;11.93;9.33;;;19.70;1.00;;;;;;5031399;28;20422;-78
2021/09/10 03:30:13;;;;;;;14.63;9.50;;;19.70;1.00;;;;;;5035592;28;20387;-78
2021/09/10 03:36:08;;;;;;;17.53;10.07;;;19.70;1.00;;;;;;5024757;28;20418;-78
2021/09/10 03:38:54;;;;;;;14.43;9.60;;;19.70;1.00;;;;;;5015964;28;20463;-77
2021/09/10 03:41:37;;;;;;;13.17;9.33;;;19.80;1.00;;;;;;5016127;28;20395;-78
2021/09/10 03:44:43;;;;;;;14.83;9.17;;;19.70;1.00;;;;;;5024702;28;20771;-78
2021/09/10 03:50:30;;;;;;;12.50;9.10;;;19.80;1.00;;;;;;5035434;28;20386;-78
2021/09/10 03:53:07;;;;;;;14.93;8.90;;;19.80;1.00;;;;;;5034284;28;20426;-78
2021/09/10 03:58:54;;;;;;;14.60;9.73;;;19.70;1.00;;;;;;5015690;28;20507;-78
2021/09/10 04:02:00;;;;;;;16.23;10.57;;;19.70;1.00;;;;;;5020642;28;20467;-78
2021/09/10 04:04:43;;;;;;;15.80;9.60;;;19.70;1.00;;;;;;5016409;28;20203;-77
2021/09/10 04:10:31;;;;;;;13.90;9.80;;;;;;;;;;5021848;28;20397;-84
2021/09/10 04:13:01;;;;;;;20.03;10.47;;;19.70;1.00;;;;;;5027136;28;20761;-78
2021/09/10 04:15:43;;;;;;;17.53;10.70;;;19.70;1.00;;;;;;5031879;28;20410;-77
2021/09/10 04:18:54;;;;;;;15.67;10.40;;;19.70;1.00;;;;;;5035200;28;20480;-77
2021/09/10 04:21:55;;;;;;;12.73;9.83;;;19.60;1.00;;;;;;5030825;28;20436;-76
2021/09/10 04:24:24;;;;;;;16.03;9.30;;;19.60;1.00;;;;;;5027581;28;20393;-74
2021/09/10 04:26:55;;;;;;;15.40;10.50;;;19.60;1.00;;;;;;5034768;28;20772;-73
2021/09/10 04:29:21;;;;;;;15.00;9.30;;;19.50;1.00;;;;;;5034298;28;20493;-72
2021/09/10 04:31:46;;;;;;;15.30;9.77;;;19.50;1.00;;;;;;5033914;28;20525;-72
2021/09/10 04:34:12;;;;;;;12.73;9.23;;;19.50;1.00;;;;;;5030458;28;20173;-72
2021/09/10 04:36:38;;;;;;;16.43;9.53;;;19.40;1.00;;;;;;5020853;28;20694;-72
2021/09/10 04:39:07;;;;;;;12.47;9.03;;;19.50;1.00;;;;;;5028660;28;20192;-72
2021/09/10 04:41:37;;;;;;;19.20;9.33;;;19.40;1.00;;;;;;5033999;28;20642;-76
2021/09/10 04:44:13;;;;;;;13.40;9.70;;;19.40;1.00;;;;;;5034418;28;20880;-76
2021/09/10 04:47:12;;;;;;;25.23;10.10;;;19.40;1.00;;;;;;5033877;28;20472;-76
2021/09/10 04:49:43;;;;;;;14.10;9.33;;;19.40;1.00;;;;;;5034511;28;20873;-79
2021/09/10 04:52:19;;;;;;;15.50;10.37;;;19.40;1.00;;;;;;5022999;28;20435;-76
2021/09/10 04:54:45;;;;;;;20.67;9.97;;;19.40;1.00;;;;;;5017492;28;20484;-73
2021/09/10 04:57:13;;;;;;;14.20;9.80;;;19.40;1.00;;;;;;5026100;28;20454;-72
2021/09/10 04:59:38;;;;;;;15.10;10.27;;;19.40;1.00;;;;;;5032374;28;20534;-72
2021/09/10 05:05:49;;;;;;;17.37;9.73;;;19.40;1.00;;;;;;5014220;28;20178;-79
2021/09/10 05:11:36;;;;;;;14.83;9.53;;;19.40;1.00;;;;;;5031318;28;20433;-80
2021/09/10 05:17:23;;;;;;;18.80;9.40;;;19.40;1.00;;;;;;5016890;28;20262;-80
2021/09/10 05:29:54;;;;;;;15.00;10.20;;;19.30;1.00;;;;;;5013637;28;20454;-80
2021/09/10 05:32:48;;;;;;;13.20;10.20;;;19.30;1.00;;;;;;5029203;28;20421;-81
2021/09/10 05:38:36;;;;;;;13.47;9.87;;;19.40;1.00;;;;;;5030003;28;20551;-79
2021/09/10 05:41:25;;;;;;;13.50;9.57;;;19.40;1.00;;;;;;5033544;28;20433;-79
2021/09/10 05:43:55;;;;;;;14.03;9.77;;;19.40;1.00;;;;;;5031840;28;20195;-79
2021/09/10 05:46:20;;;;;;;16.73;10.00;;;19.50;1.00;;;;;;5023965;28;20429;-79
2021/09/10 05:48:46;;;;;;;14.37;10.20;;;19.50;1.00;;;;;;5032580;28;20392;-79
2021/09/10 05:51:12;;;;;;;16.63;10.07;;;19.60;1.00;;;;;;5032726;28;20643;-79
2021/09/10 05:53:38;;;;;;;17.27;10.23;;;19.70;1.00;;;;;;5032841;28;20179;-79
2021/09/10 05:56:04;;;;;;;16.40;10.03;;;19.70;1.00;;;;;;5032939;28;20160;-79
2021/09/10 05:58:30;;;;;;;15.03;10.37;;;;;;;;;;5031371;28;20414;-79
2021/09/10 06:00:55;;;;;;;18.30;9.03;;;19.80;1.00;;;;;;5032588;28;20391;-79
2021/09/10 06:03:21;;;;;;;17.57;9.83;;;19.90;1.00;;;;;;5032662;28;20769;-79
2021/09/10 06:05:47;;;;;;;14.93;10.40;;;19.90;1.00;;;;;;5032368;28;20616;-79
2021/09/10 06:08:13;;;;;;;12.80;9.00;;;20.00;1.00;;;;;;5032528;28;20214;-79
2021/09/10 06:10:40;;;;;;;16.80;9.10;;;20.00;1.00;;;;;;5032636;28;20194;-78
2021/09/10 06:13:06;;;;;;;10.87;7.93;;;;;;;;;;5032551;28;20400;-78
2021/09/10 06:15:32;;;;;;;14.63;8.50;;;20.20;1.00;;;;;;5032476;28;20399;-78
2021/09/10 06:17:57;;;;;;;13.37;8.53;;;20.20;1.00;;;;;;5032475;28;20431;-78
2021/09/10 06:20:25;;;;;;;14.73;9.00;;;20.20;1.00;;;;;;5032503;28;20175;-78
2021/09/10 06:22:50;;;;;;;13.60;8.90;;;20.20;1.00;;;;;;5031269;28;20583;-78
2021/09/10 06:25:16;;;;;;;13.73;8.53;;;20.20;1.00;;;;;;5032357;28;20418;-78
2021/09/10 06:27:42;;;;;;;15.80;9.67;;;20.20;1.00;;;;;;5032798;28;20245;-79
2021/09/10 06:30:09;;;;;;;14.87;9.40;;;20.30;1.00;;;;;;5032303;28;20187;-79
2021/09/10 06:32:35;;;;;;;12.37;8.97;;;20.30;1.00;;;;;;5032361;28;20381;-79
2021/09/10 06:35:01;;;;;;;13.50;9.37;;;20.40;1.00;;;;;;5031312;28;20760;-79
2021/09/10 06:37:27;;;;;;;13.53;9.43;;;20.50;1.00;;;;;;5027125;28;20198;-79
2021/09/10 06:39:53;;;;;;;13.30;8.83;;;20.50;1.00;;;;;;5027878;28;20405;-80
2021/09/10 06:42:19;;;;;;;20.17;9.87;;;20.70;1.00;;;;;;5031836;28;20189;-78
2021/09/10 06:44:44;;;;;;;13.70;8.67;;;;;;;;;;5020018;28;20814;-78
2021/09/10 06:47:10;;;;;;;16.13;9.07;;;20.80;1.00;;;;;;5025918;28;20201;-78
2021/09/10 06:49:36;;;;;;;17.23;8.50;;;20.80;1.00;;;;;;5031045;28;20431;-78
2021/09/10 06:52:02;;;;;;;13.87;9.10;;;20.90;1.00;;;;;;5032171;28;20166;-78
2021/09/10 06:54:27;;;;;;;13.20;8.30;;;21.00;1.00;;;;;;5035531;28;20162;-78
2021/09/10 06:56:53;;;;;;;14.90;8.80;;;21.00;1.00;;;;;;5036089;28;20253;-79
2021/09/10 06:59:19;;;;;;;15.73;8.77;;;21.10;1.00;;;;;;5035707;28;20158;-79
2021/09/10 07:01:46;;;;;;;9.40;7.87;;;21.10;1.00;;;;;;5035765;28;20587;-79
2021/09/10 07:04:12;;;;;;;19.57;8.83;;;;;;;;;;5035755;28;20462;-80
2021/09/10 07:06:38;;;;;;;13.43;8.17;;;21.10;1.00;;;;;;5035566;28;20487;-80
2021/09/10 07:09:04;;;;;;;12.87;8.00;;;21.10;1.00;;;;;;5035564;28;20422;-79
2021/09/10 07:11:32;;;;;;;13.53;8.90;;;21.20;1.00;;;;;;5035500;28;20434;-79
2021/09/10 07:13:59;;;;;;;17.10;8.20;;;21.40;1.00;;;;;;5035261;28;20162;-79
2021/09/10 07:16:24;;;;;;;12.90;8.43;;;21.40;1.00;;;;;;5035248;28;20417;-79
2021/09/10 07:18:50;;;;;;;10.67;7.90;;;21.60;1.00;;;;;;5035518;28;20573;-79
2021/09/10 07:21:16;;;;;;;16.20;8.47;;;21.60;1.00;;;;;;5035390;28;20165;-79
2021/09/10 07:23:41;;;;;;;10.00;7.87;;;22.00;1.00;;;;;;5035648;28;20657;-79
2021/09/10 07:26:07;;;;;;;13.60;7.80;;;22.00;1.00;;;;;;5035673;28;20164;-78
2021/09/10 07:28:34;;;;;;;14.80;7.80;;;22.10;1.00;;;;;;5033994;28;20200;-78
2021/09/10 07:31:01;;;;;;;11.60;7.80;;;22.20;1.00;;;;;;5035051;28;20195;-78
2021/09/10 07:33:27;;;;;;;15.53;7.00;;;22.40;1.00;;;;;;5035089;28;20498;-77
2021/09/10 07:35:53;;;;;;;10.10;6.70;;;22.40;1.00;;;;;;5034906;28;20498;-78
2021/09/10 07:38:19;;;;;;;18.83;6.83;;;22.40;1.00;;;;;;5035014;28;20411;-78
2021/09/10 07:40:45;;;;;;;10.90;6.97;;;22.50;1.00;;;;;;5034896;28;20403;-78
2021/09/10 07:43:10;;;;;;;15.17;7.00;;;22.80;1.00;;;;;;5032923;28;20182;-78
2021/09/10 07:45:36;;;;;;;9.83;6.80;;;22.80;1.00;;;;;;5018746;28;20424;-78
2021/09/10 07:48:02;;;;;;;19.73;7.10;;;22.90;1.00;;;;;;5034735;28;20207;-78
2021/09/10 07:50:28;;;;;;;9.70;6.33;;;22.90;1.00;;;;;;5034895;28;20218;-79
2021/09/10 07:52:54;;;;;;;8.17;6.10;;;22.90;1.00;;;;;;5034676;28;20211;-79
2021/09/10 07:55:19;;;;;;;12.13;6.90;;;22.90;1.00;;;;;;5034739;28;20427;-78
2021/09/10 07:57:45;;;;;;;9.97;6.60;;;23.00;1.00;;;;;;5034918;28;20589;-78
2021/09/10 08:00:11;;;;;;;10.93;6.70;;;23.10;1.00;;;;;;5034691;28;20163;-78
2021/09/10 08:02:39;;;;;;;9.60;6.10;;;23.10;1.00;;;;;;5034655;28;20157;-78
2021/09/10 08:05:05;;;;;;;8.03;5.70;;;23.20;1.00;;;;;;5033401;28;20168;-77
2021/09/10 08:07:31;;;;;;;9.73;6.50;;;23.20;1.00;;;;;;5034444;28;20996;-77
2021/09/10 08:09:57;;;;;;;8.67;6.87;;;23.20;1.00;;;;;;5034321;28;20413;-77
2021/09/10 08:12:22;;;;;;;8.57;6.83;;;23.30;1.00;;;;;;5034243;28;20262;-78
2021/09/10 08:14:48;;;;;;;10.90;8.03;;;23.30;1.00;;;;;;5034294;28;20573;-78
2021/09/10 08:17:14;;;;;;;8.87;6.80;;;23.30;1.00;;;;;;5034390;28;20173;-78
2021/09/10 08:19:40;;;;;;;7.90;6.60;;;23.30;1.00;;;;;;5034017;28;20420;-78
2021/09/10 08:22:05;;;;;;;9.43;6.00;;;23.30;1.00;;;;;;5034330;28;20571;-78
2021/09/10 08:24:32;;;;;;;10.83;6.60;;;;;;;;;;5034276;28;20236;-78
2021/09/10 08:26:58;;;;;;;15.13;6.13;;;23.30;1.00;;;;;;5034421;28;20448;-78
2021/09/10 08:29:24;;;;;;;11.30;6.00;;;23.40;1.00;;;;;;5033641;28;20446;-78
2021/09/10 08:31:49;;;;;;;9.00;6.03;;;23.40;1.00;;;;;;5034151;28;20177;-78
2021/09/10 08:34:15;;;;;;;7.37;5.80;;;23.40;1.00;;;;;;5034032;28;20672;-78
2021/09/10 08:36:40;;;;;;;7.30;5.83;;;23.40;1.00;;;;;;5033998;28;20171;-78
2021/09/10 08:39:06;;;;;;;11.90;6.57;;;23.40;1.00;;;;;;5033963;28;20590;-78
2021/09/10 08:41:34;;;;;;;10.73;6.37;;;23.40;1.00;;;;;;5033742;28;20239;-78
2021/09/10 08:44:04;;;;;;;7.43;5.87;;;23.40;1.00;;;;;;5030761;28;20187;-78
2021/09/10 08:46:30;;;;;;;10.93;6.57;;;23.30;1.00;;;;;;5033558;28;20790;-78
2021/09/10 08:48:56;;;;;;;7.73;6.57;;;;;;;;;;5033536;28;20434;-78
2021/09/10 08:51:22;;;;;;;11.77;6.60;;;23.20;1.00;;;;;;5033604;28;20162;-78
2021/09/10 08:53:48;;;;;;;9.67;6.70;;;23.20;1.00;;;;;;5034055;28;20416;-78
2021/09/10 08:56:19;;;;;;;9.67;7.13;;;23.10;1.00;;;;;;5033577;28;20526;-78
2021/09/10 08:58:45;;;;;;;9.23;7.17;;;23.10;1.00;;;;;;5034025;28;20391;-77
2021/09/10 09:01:10;;;;;;;9.90;6.63;;;23.10;1.00;;;;;;5033447;28;20473;-77
2021/09/10 09:03:36;;;;;;;9.33;7.20;;;;;;;;;;5032680;28;20168;-77
2021/09/10 09:06:02;;;;;;;7.80;6.40;;;23.10;1.00;;;;;;5033070;28;20218;-78
2021/09/10 09:08:28;;;;;;;9.50;7.27;;;23.30;1.00;;;;;;5033308;28;20461;-78
2021/09/10 09:11:04;;;;;;;10.47;6.80;;;23.30;1.00;;;;;;5033095;28;20415;-78
2021/09/10 09:13:45;;;;;;;9.13;7.50;;;23.50;1.00;;;;;;5033741;28;20184;-78
2021/09/10 09:16:29;;;;;;;10.37;7.80;;;23.50;1.00;;;;;;5032407;28;20483;-78
2021/09/10 09:19:01;;;;;;;10.33;7.40;;;23.80;1.00;;;;;;5030256;28;20444;-78
2021/09/10 09:21:28;;;;;;;7.70;6.60;;;23.80;1.00;;;;;;5033437;28;20502;-78
2021/09/10 09:23:58;;;;;;;12.50;7.20;;;24.10;1.00;;;;;;5033213;28;20446;-78
2021/09/10 09:26:28;;;;;;;7.97;6.70;;;24.10;1.00;;;;;;5033068;28;20441;-78
2021/09/10 09:29:03;;;;;;;11.50;7.23;;;24.20;1.00;;;;;;5033390;28;20390;-78
2021/09/10 09:31:28;;;;;;;19.50;6.30;;;24.30;1.00;;;;;;5032908;28;20432;-78
2021/09/10 09:33:54;;;;;;;9.23;6.83;;;24.40;1.00;;;;;;5032936;28;20413;-78
2021/09/10 09:36:20;;;;;;;9.83;6.80;;;24.50;1.00;;;;;;5033074;28;20172;-78
2021/09/10 09:38:46;;;;;;;13.30;6.73;;;24.70;1.00;;;;;;5032993;28;20630;-78
2021/09/10 09:41:13;;;;;;;12.60;6.80;;;24.90;1.00;;;;;;5032966;28;20257;-78
2021/09/10 09:43:44;;;;;;;9.30;6.30;;;24.90;1.00;;;;;;5033277;28;20465;-78
2021/09/10 09:46:15;;;;;;;6.83;6.13;;;25.20;1.00;;;;;;5032847;28;20884;-78
2021/09/10 09:48:43;;;;;;;6.80;6.10;;;25.50;1.00;;;;;;5032713;28;20464;-77
2021/09/10 09:51:10;;;;;;;8.70;5.80;;;25.70;1.00;;;;;;5032902;28;20399;-78
2021/09/10 09:53:38;;;;;;;7.73;5.80;;;26.00;1.00;;;;;;5032761;28;20396;-78
2021/09/10 09:56:04;;;;;;;8.73;5.57;;;26.30;1.00;;;;;;5032760;28;20395;-78
2021/09/10 09:58:31;;;;;;;10.20;6.17;;;26.30;1.00;;;;;;5033161;28;20396;-78
2021/09/10 10:00:57;;;;;;;8.53;5.63;;;26.30;1.00;;;;;;5031475;28;20432;-78
2021/09/10 10:03:23;;;;;;;6.13;5.53;;;26.20;1.00;;;;;;5032746;28;20394;-78
2021/09/10 10:06:01;;;;;;;8.53;6.30;;;26.30;1.00;;;;;;5032318;28;20826;-78
2021/09/10 10:08:36;;;;;;;7.90;5.63;;;26.40;1.00;;;;;;5031288;28;20285;-78
2021/09/10 10:11:13;;;;;;;12.63;5.90;;;26.20;1.00;;;;;;5032320;28;20407;-78
2021/09/10 10:13:38;;;;;;;12.23;5.60;;;26.00;1.00;;;;;;5033082;28;20498;-78
2021/09/10 10:16:04;;;;;;;8.13;4.97;;;26.00;1.00;;;;;;5032696;28;20863;-78
2021/09/10 10:18:44;;;;;;;6.90;5.60;;;26.00;1.00;;;;;;5013601;28;20587;-79
2021/09/10 10:21:11;;;;;;;10.87;5.70;;;25.80;1.00;;;;;;5012238;28;20526;-78
2021/09/10 10:23:43;;;;;;;7.70;5.70;;;25.60;1.00;;;;;;5028944;28;20434;-78
2021/09/10 10:26:36;;;;;;;7.73;5.33;;;25.70;1.00;;;;;;5018888;28;20518;-77
2021/09/10 10:29:13;;;;;;;10.30;5.67;;;25.80;1.00;;;;;;5035256;28;20432;-78
2021/09/10 10:32:02;;;;;;;9.30;5.70;;;25.80;1.00;;;;;;5036050;28;20866;-78
2021/09/10 10:34:29;;;;;;;9.00;6.13;;;25.90;1.00;;;;;;5036191;28;20461;-78
2021/09/10 10:36:55;;;;;;;8.00;6.23;;;25.90;1.00;;;;;;5036166;28;20409;-78
2021/09/10 10:39:27;;;;;;;7.53;5.43;;;25.90;1.00;;;;;;5036145;28;20401;-78
2021/09/10 10:42:04;;;;;;;12.33;6.30;;;25.90;1.00;;;;;;5036189;28;20158;-78
2021/09/10 10:44:32;;;;;;;10.23;5.67;;;26.00;1.00;;;;;;5036391;28;20415;-78
2021/09/10 10:47:06;;;;;;;8.47;5.87;;;26.10;1.00;;;;;;5036035;28;20448;-78
2021/09/10 10:49:47;;;;;;;8.67;5.10;;;26.20;1.00;;;;;;5035840;28;20884;-78
2021/09/10 10:52:33;;;;;;;6.57;4.73;;;26.20;1.00;;;;;;5036314;28;20397;-79
2021/09/10 10:55:19;;;;;;;5.53;4.60;;;29.20;1.00;;;;;;5034653;28;20422;-78
2021/09/10 10:58:26;;;;;;;6.60;5.10;;;26.20;1.00;;;;;;5035805;28;20405;-78
2021/09/10 11:00:59;;;;;;;7.37;4.90;;;26.20;1.00;;;;;;5035167;28;20432;-77
2021/09/10 11:03:25;;;;;;;6.13;4.40;;;26.10;1.00;;;;;;5035632;28;20954;-77
2021/09/10 11:05:52;;;;;;;7.23;4.17;;;26.10;1.00;;;;;;5035237;28;20492;-78
2021/09/10 11:08:19;;;;;;;5.87;3.80;;;26.30;1.00;;;;;;5035589;28;20213;-78
2021/09/10 11:10:50;;;;;;;5.73;3.80;;;26.30;1.00;;;;;;5035305;28;20407;-78
2021/09/10 11:13:19;;;;;;;5.07;4.33;;;26.40;1.00;;;;;;5035883;28;20400;-78
2021/09/10 11:15:45;;;;;;;7.20;4.37;;;26.40;1.00;;;;;;5035466;28;20441;-78
2021/09/10 11:18:14;;;;;;;4.90;4.50;;;26.30;1.00;;;;;;5035429;28;20440;-78
2021/09/10 11:20:46;;;;;;;4.40;3.90;;;25.90;1.00;;;;;;5035434;28;20247;-78
2021/09/10 11:23:25;;;;;;;11.03;4.13;;;25.90;1.00;;;;;;5034543;28;20441;-78
2021/09/10 11:25:58;;;;;;;4.97;4.17;;;25.90;1.00;;;;;;5035252;28;20420;-78
2021/09/10 11:28:28;;;;;;;5.63;4.20;;;25.90;1.00;;;;;;5035536;28;20457;-77
2021/09/10 11:30:54;;;;;;;6.70;3.80;;;25.80;1.00;;;;;;5034938;28;20448;-78
2021/09/10 11:33:20;;;;;;;7.07;4.33;;;25.70;1.00;;;;;;5028685;28;20477;-78
2021/09/10 11:35:48;;;;;;;4.40;4.00;;;25.70;1.00;;;;;;5033763;28;20283;-78
2021/09/10 11:38:24;;;;;;;8.63;4.17;;;26.00;1.00;;;;;;5035037;28;20453;-78
2021/09/10 11:40:55;;;;;;;5.43;3.77;;;26.00;1.00;;;;;;5033952;28;20437;-78
2021/09/10 11:43:27;;;;;;;6.10;4.00;;;25.80;1.00;;;;;;5035067;28;20433;-78
2021/09/10 11:45:56;;;;;;;4.00;3.70;;;25.80;1.00;;;;;;5034819;28;20452;-78
2021/09/10 11:48:23;;;;;;;5.37;3.40;;;25.70;1.00;;;;;;5034821;28;20480;-78
2021/09/10 11:51:05;;;;;;;4.10;3.50;;;25.90;1.00;;;;;;5034792;28;20401;-78
2021/09/10 11:53:34;;;;;;;4.87;3.30;;;26.00;1.00;;;;;;5033523;28;20971;-78
2021/09/10 11:56:11;;;;;;;5.80;3.30;;;26.10;1.00;;;;;;5034809;28;20401;-78
2021/09/10 11:58:40;;;;;;;5.53;3.13;;;26.30;1.00;;;;;;5034978;28;20406;-78
2021/09/10 12:01:21;;;;;;;3.20;2.90;;;26.40;1.00;;;;;;5033227;28;20426;-78
2021/09/10 12:04:05;;;;;;;6.23;2.97;;;26.50;1.00;;;;;;5034337;28;20416;-78
2021/09/10 12:06:33;;;;;;;6.77;3.43;;;26.80;1.00;;;;;;5034281;28;20403;-78
2021/09/10 12:09:09;;;;;;;5.17;2.80;;;27.00;1.00;;;;;;5034431;28;20954;-78
2021/09/10 12:11:55;;;;;;;3.57;2.80;;;27.00;1.00;;;;;;5034114;28;20395;-78
2021/09/10 12:14:35;;;;;;;3.17;2.87;;;27.00;1.00;;;;;;5033510;28;20413;-78
2021/09/10 12:17:17;;;;;;;4.73;3.60;;;27.10;1.00;;;;;;5034358;28;20413;-78
2021/09/10 12:19:50;;;;;;;4.03;3.53;;;27.10;1.00;;;;;;5034309;28;20390;-78
2021/09/10 12:22:48;;;;;;;4.80;3.37;;;27.40;1.00;;;;;;5032947;28;20495;-78
2021/09/10 12:25:34;;;;;;;3.83;3.37;;;27.40;1.00;;;;;;5034101;28;20391;-78
2021/09/10 12:28:03;;;;;;;3.20;2.93;;;27.40;1.00;;;;;;5034092;28;20499;-78
2021/09/10 12:30:43;;;;;;;6.57;3.07;;;27.20;1.00;;;;;;5032912;28;20448;-78
2021/09/10 12:33:10;;;;;;;6.17;2.87;;;27.00;1.00;;;;;;5023290;28;20437;-78
2021/09/10 12:35:37;;;;;;;3.23;2.93;;;26.90;1.00;;;;;;5026325;28;20505;-78
2021/09/10 12:38:08;;;;;;;3.33;3.10;;;26.90;1.00;;;;;;5033899;28;20427;-78
2021/09/10 12:40:36;;;;;;;5.87;3.30;;;27.00;1.00;;;;;;5033770;28;20407;-78
2021/09/10 12:43:04;;;;;;;3.23;2.93;;;27.00;1.00;;;;;;5033266;28;20414;-78
2021/09/10 12:46:08;;;;;;;5.10;2.60;;;27.20;1.00;;;;;;5015417;28;20973;-81
2021/09/10 12:49:01;;;;;;;2.70;2.50;;;27.40;1.00;;;;;;5015062;28;20449;-82
2021/09/10 12:54:48;;;;;;;2.83;2.43;;;28.10;1.00;;;;;;5027241;28;20431;-80
2021/09/10 12:57:19;;;;;;;5.17;2.77;;;28.50;1.00;;;;;;5033660;28;20401;-80
2021/09/10 13:03:12;;;;;;;3.00;2.63;;;29.00;1.00;;;;;;5033883;28;20414;-78
2021/09/10 13:06:30;;;;;;;3.00;2.70;;;29.10;1.00;;;;;;5027044;28;20425;-77
2021/09/10 13:09:37;;;;;;;2.53;2.33;;;29.30;1.00;;;;;;5019696;28;20761;-78
2021/09/10 13:12:03;;;;;;;6.67;2.47;;;29.20;1.00;;;;;;5032563;28;20415;-76
2021/09/10 13:14:37;;;;;;;2.67;2.47;;;28.90;1.00;;;;;;5034665;28;20745;-77
2021/09/10 13:17:03;;;;;;;2.50;2.30;;;28.70;1.00;;;;;;5034146;28;20387;-76
2021/09/10 13:19:28;;;;;;;4.30;2.17;;;28.70;1.00;;;;;;5033381;28;20480;-77
2021/09/10 13:21:55;;;;;;;2.73;2.30;;;28.90;1.00;;;;;;5033371;28;20327;-81
2021/09/10 13:24:25;;;;;;;3.60;2.70;;;29.00;1.00;;;;;;5034039;28;20172;-78
2021/09/10 13:26:55;;;;;;;4.83;2.60;;;29.00;1.00;;;;;;5033898;28;20940;-80
2021/09/10 13:29:20;;;;;;;4.87;2.40;;;28.80;1.00;;;;;;5033729;28;20892;-76
2021/09/10 13:31:55;;;;;;;2.40;2.20;;;28.70;1.00;;;;;;5033523;28;20439;-77
2021/09/10 13:34:23;;;;;;;5.57;2.57;;;28.30;1.00;;;;;;5020560;28;20195;-77
2021/09/10 13:37:02;;;;;;;2.00;1.90;;;28.20;1.00;;;;;;5030148;28;20440;-77
2021/09/10 13:39:55;;;;;;;2.27;2.17;;;28.20;1.00;;;;;;5014446;28;20894;-77
2021/09/10 13:42:31;;;;;;;13.43;2.63;;;27.90;1.00;;;;;;5027460;28;20455;-77
2021/09/10 13:44:57;;;;;;;3.57;2.60;;;27.90;1.00;;;;;;5028013;28;20892;-78
2021/09/10 13:47:24;;;;;;;7.23;3.03;;;27.90;1.00;;;;;;5014101;28;20444;-77
2021/09/10 13:49:50;;;;;;;7.90;3.47;;;27.90;1.00;;;;;;5014333;28;20159;-77
2021/09/10 13:52:19;;;;;;;6.00;3.30;;;28.10;1.00;;;;;;5021486;28;20512;-77
2021/09/10 13:54:49;;;;;;;4.13;2.60;;;28.10;1.00;;;;;;5032833;28;20957;-77
2021/09/10 13:57:19;;;;;;;5.43;3.20;;;28.30;1.00;;;;;;5034085;28;20468;-77
2021/09/10 14:00:01;;;;;;;9.43;4.30;;;28.40;1.00;;;;;;5033947;28;20394;-78
2021/09/10 14:02:34;;;;;;;6.93;4.37;;;;;;;;;;5033813;28;20417;-79
2021/09/10 14:05:19;;;;;;;5.50;4.80;;;28.50;1.00;;;;;;5036003;28;20403;-79
2021/09/10 14:11:06;;;;;;;5.73;4.37;;;28.30;1.00;;;;;;5037096;28;20405;-79
2021/09/10 14:13:32;;;;;;;6.30;5.00;;;28.50;1.00;;;;;;5036566;28;20426;-79
2021/09/10 14:16:07;;;;;;;7.00;4.50;;;28.60;1.00;;;;;;5037773;28;20251;-78
2021/09/10 14:18:49;;;;;;;6.50;4.60;;;28.70;1.00;;;;;;5037265;28;20400;-77
2021/09/10 14:21:25;;;;;;;6.43;4.40;;;28.60;1.00;;;;;;5036981;28;20426;-77
2021/09/10 14:23:51;;;;;;;4.90;4.40;;;28.50;1.00;;;;;;5037117;28;20425;-77
2021/09/10 14:26:55;;;;;;;6.80;4.73;;;28.60;1.00;;;;;;5037473;28;20414;-77
2021/09/10 14:29:20;;;;;;;8.40;4.47;;;28.60;1.00;;;;;;5037112;28;20561;-77
2021/09/10 14:35:08;;;;;;;9.87;5.60;;;28.50;1.00;;;;;;5025769;28;20214;-79
2021/09/10 14:40:55;;;;;;;8.13;4.80;;;28.40;1.00;;;;;;5016695;28;20310;-77
2021/09/10 14:43:25;;;;;;;8.70;5.20;;;28.30;1.00;;;;;;5033322;28;20846;-78
2021/09/10 14:45:55;;;;;;;6.03;5.33;;;;;;;;;;5037406;28;20617;-77
2021/09/10 14:48:21;;;;;;;13.70;5.60;;;28.00;1.00;;;;;;5036129;28;20459;-77
2021/09/10 14:50:47;;;;;;;6.87;5.40;;;;;;;;;;5037004;28;20406;-77
2021/09/10 14:53:43;;;;;;;11.07;5.30;;;27.60;1.00;;;;;;5036185;28;20224;-77
2021/09/10 14:56:13;;;;;;;12.73;5.93;;;27.50;1.00;;;;;;5035276;28;20768;-76
2021/09/10 14:59:05;;;;;;;6.73;5.70;;;27.50;1.00;;;;;;5025679;28;20458;-76
2021/09/10 15:01:34;;;;;;;7.10;5.60;;;27.50;1.00;;;;;;5026078;28;20425;-77
2021/09/10 15:04:07;;;;;;;8.73;5.80;;;27.40;1.00;;;;;;5035644;28;20782;-78
2021/09/10 15:06:49;;;;;;;10.33;5.57;;;27.40;1.00;;;;;;5019351;28;20423;-77
2021/09/10 15:09:43;;;;;;;7.93;5.67;;;27.30;1.00;;;;;;5016778;28;20854;-78
2021/09/10 15:12:26;;;;;;;7.03;5.70;;;27.20;1.00;;;;;;5021181;28;20419;-78
2021/09/10 15:15:10;;;;;;;8.93;5.87;;;27.00;1.00;;;;;;5035788;28;20448;-78
2021/09/10 15:17:37;;;;;;;10.60;6.63;;;26.80;1.00;;;;;;5036760;28;20906;-78
2021/09/10 15:20:25;;;;;;;11.23;6.30;;;26.80;1.00;;;;;;5034810;28;20422;-77
2021/09/10 15:23:12;;;;;;;9.60;6.40;;;;;;;;;;5035893;28;20416;-77
2021/09/10 15:25:38;;;;;;;88.03;8.63;;;26.40;1.00;;;;;;5036297;28;20468;-77
2021/09/10 15:28:07;;;;;;;16.57;7.40;;;26.20;1.00;;;;;;5036279;28;20538;-77